createdAt,value
2022-10-14T00:02:00.644Z,24.77
2022-10-14T00:04:27.825Z,21.48
2022-10-14T00:06:54.921Z,23.20
2022-10-14T00:09:22.262Z,26.75
2022-10-14T00:11:49.569Z,27.27
2022-10-14T00:14:20.065Z,26.48
2022-10-14T00:16:53.585Z,26.60
2022-10-14T00:19:21.889Z,26.85
2022-10-14T00:21:50.768Z,24.17
2022-10-14T00:24:18.887Z,24.95
2022-10-14T00:26:46.372Z,28.20
2022-10-14T00:29:18.854Z,26.75
2022-10-14T00:31:46.631Z,26.30
2022-10-14T00:34:16.253Z,28.40
2022-10-14T00:36:44.650Z,25.27
2022-10-14T00:39:16.062Z,29.23
2022-10-14T00:41:45.819Z,29.60
2022-10-14T00:44:14.504Z,28.52
2022-10-14T00:46:49.700Z,29.33
2022-10-14T00:49:39.400Z,29.95
2022-10-14T00:52:13.742Z,28.08
2022-10-14T00:54:44.775Z,30.83
2022-10-14T00:57:15.322Z,28.00
2022-10-14T00:59:42.542Z,28.77
2022-10-14T01:02:09.997Z,29.02
2022-10-14T01:04:40.894Z,31.48
2022-10-14T01:07:35.823Z,31.02
2022-10-14T01:10:26.402Z,31.85
2022-10-14T01:13:15.418Z,31.00
2022-10-14T01:15:57.586Z,29.65
2022-10-14T01:18:43.375Z,30.45
2022-10-14T01:21:27.188Z,31.67
2022-10-14T01:24:05.353Z,30.27
2022-10-14T01:26:45.975Z,31.35
2022-10-14T01:29:19.248Z,29.67
2022-10-14T01:31:54.766Z,28.30
2022-10-14T01:34:28.747Z,29.03
2022-10-14T01:37:00.288Z,30.17
2022-10-14T01:39:33.648Z,30.73
2022-10-14T01:42:10.635Z,30.58
2022-10-14T01:44:43.541Z,29.65
2022-10-14T01:47:16.821Z,29.60
2022-10-14T01:49:50.370Z,30.33
2022-10-14T01:52:27.560Z,28.83
2022-10-14T01:54:58.522Z,28.90
2022-10-14T01:57:33.781Z,29.92
2022-10-14T02:00:02.736Z,29.48
2022-10-14T02:02:41.429Z,28.23
2022-10-14T02:05:29.120Z,31.50
2022-10-14T02:08:30.423Z,28.98
2022-10-14T02:11:03.748Z,28.80
2022-10-14T02:13:44.177Z,29.70
2022-10-14T02:16:49.062Z,29.98
2022-10-14T02:19:42.234Z,29.23
2022-10-14T02:22:28.021Z,25.98
2022-10-14T02:25:00.483Z,28.67
2022-10-14T02:27:29.171Z,29.60
2022-10-14T02:29:59.300Z,31.65
2022-10-14T02:32:28.518Z,30.67
2022-10-14T02:34:58.839Z,30.00
2022-10-14T02:37:29.517Z,31.15
2022-10-14T02:40:11.462Z,29.33
2022-10-14T02:42:38.610Z,30.50
2022-10-14T02:45:07.731Z,32.50
2022-10-14T02:47:34.858Z,31.15
2022-10-14T02:50:02.064Z,29.50
2022-10-14T02:52:30.398Z,30.08
2022-10-14T02:54:58.247Z,30.00
2022-10-14T02:57:32.715Z,31.45
2022-10-14T03:00:05.682Z,29.17
2022-10-14T03:02:34.161Z,28.17
2022-10-14T03:05:02.286Z,29.15
2022-10-14T03:07:30.580Z,29.35
2022-10-14T03:10:02.818Z,31.17
2022-10-14T03:12:33.754Z,28.67
2022-10-14T03:15:01.101Z,28.85
2022-10-14T03:17:29.775Z,28.65
2022-10-14T03:20:04.495Z,30.23
2022-10-14T03:22:36.768Z,26.88
2022-10-14T03:25:09.517Z,30.08
2022-10-14T03:27:42.862Z,28.02
2022-10-14T03:30:13.409Z,28.50
2022-10-14T03:32:53.766Z,28.08
2022-10-14T03:35:34.861Z,30.33
2022-10-14T03:38:03.946Z,26.90
2022-10-14T03:40:33.831Z,28.15
2022-10-14T03:43:01.963Z,28.50
2022-10-14T03:45:37.157Z,28.83
2022-10-14T03:48:06.779Z,29.52
2022-10-14T03:50:38.905Z,31.98
2022-10-14T03:53:07.583Z,31.45
2022-10-14T03:55:37.010Z,30.45
2022-10-14T03:58:07.288Z,28.50
2022-10-14T04:00:38.438Z,31.40
2022-10-14T04:03:23.034Z,30.25
2022-10-14T04:05:50.168Z,30.25
2022-10-14T04:08:21.813Z,27.65
2022-10-14T04:10:55.868Z,33.63
2022-10-14T04:13:24.723Z,30.08
2022-10-14T04:15:51.978Z,32.38
2022-10-14T04:18:23.971Z,32.78
2022-10-14T04:20:53.817Z,31.23
2022-10-14T04:23:26.169Z,30.55
2022-10-14T04:25:57.515Z,32.40
2022-10-14T04:28:25.355Z,32.10
2022-10-14T04:31:09.375Z,31.23
2022-10-14T04:33:48.961Z,32.60
2022-10-14T04:36:24.177Z,30.87
2022-10-14T04:38:51.353Z,32.60
2022-10-14T04:41:19.495Z,30.73
2022-10-14T04:43:49.101Z,32.42
2022-10-14T04:46:34.904Z,33.05
2022-10-14T04:49:02.388Z,33.10
2022-10-14T04:51:34.458Z,30.73
2022-10-14T04:54:16.098Z,34.08
2022-10-14T04:56:53.027Z,35.50
2022-10-14T04:59:20.179Z,38.42
2022-10-14T05:01:59.284Z,36.60
2022-10-14T05:04:35.615Z,34.92
2022-10-14T05:07:03.164Z,34.75
2022-10-14T05:09:39.130Z,35.00
2022-10-14T05:12:17.825Z,35.85
2022-10-14T05:14:50.512Z,32.20
2022-10-14T05:17:24.694Z,33.28
2022-10-14T05:19:52.047Z,33.08
2022-10-14T05:22:22.031Z,36.13
2022-10-14T05:25:00.428Z,36.22
2022-10-14T05:27:30.600Z,36.85
2022-10-14T05:29:59.535Z,38.58
2022-10-14T05:32:29.533Z,38.60
2022-10-14T05:35:03.060Z,40.53
2022-10-14T05:37:37.630Z,35.30
2022-10-14T05:40:05.840Z,38.75
2022-10-14T05:42:35.937Z,36.72
2022-10-14T05:45:03.811Z,38.20
2022-10-14T05:47:36.321Z,34.83
2022-10-14T05:50:13.275Z,36.28
2022-10-14T05:52:43.483Z,37.35
2022-10-14T05:55:27.768Z,35.58
2022-10-14T05:57:58.692Z,40.22
2022-10-14T06:00:31.734Z,38.58
2022-10-14T06:03:04.452Z,39.30
2022-10-14T06:05:35.350Z,39.13
2022-10-14T06:08:03.300Z,38.55
2022-10-14T06:10:30.606Z,37.67
2022-10-14T06:12:57.704Z,40.55
2022-10-14T06:15:26.385Z,40.10
2022-10-14T06:17:53.477Z,37.83
2022-10-14T06:20:20.602Z,40.33
2022-10-14T06:22:47.682Z,38.22
2022-10-14T06:25:14.860Z,40.17
2022-10-14T06:27:42.513Z,40.38
2022-10-14T06:30:10.465Z,41.55
2022-10-14T06:32:40.274Z,41.47
2022-10-14T06:35:07.764Z,43.35
2022-10-14T06:37:37.744Z,39.92
2022-10-14T06:40:05.404Z,40.08
2022-10-14T06:42:35.048Z,40.38
2022-10-14T06:45:02.222Z,42.80
2022-10-14T06:47:30.950Z,40.70
2022-10-14T06:49:58.320Z,42.20
2022-10-14T06:52:25.759Z,43.95
2022-10-14T06:54:52.885Z,44.47
2022-10-14T06:57:19.980Z,40.50
2022-10-14T06:59:47.230Z,45.88
2022-10-14T07:02:14.374Z,44.03
2022-10-14T07:04:41.892Z,47.17
2022-10-14T07:07:09.673Z,44.55
2022-10-14T07:09:36.908Z,44.33
2022-10-14T07:12:04.430Z,45.13
2022-10-14T07:14:31.591Z,43.25
2022-10-14T07:16:58.759Z,46.40
2022-10-14T07:19:25.864Z,47.00
2022-10-14T07:21:53.001Z,48.28
2022-10-14T07:24:20.261Z,42.88
2022-10-14T07:26:47.380Z,46.13
2022-10-14T07:29:14.525Z,46.95
2022-10-14T07:31:42.035Z,45.55
2022-10-14T07:34:09.764Z,44.30
2022-10-14T07:36:36.913Z,45.97
2022-10-14T07:39:05.907Z,47.67
2022-10-14T07:41:33.585Z,48.97
2022-10-14T07:44:05.543Z,47.28
2022-10-14T07:46:35.407Z,50.25
2022-10-14T07:49:11.605Z,50.70
2022-10-14T07:51:39.835Z,48.20
2022-10-14T07:54:09.976Z,44.80
2022-10-14T07:56:42.863Z,46.22
2022-10-14T07:59:10.273Z,46.95
2022-10-14T08:01:37.895Z,47.60
2022-10-14T08:04:05.678Z,47.58
2022-10-14T08:06:33.034Z,47.42
2022-10-14T08:09:00.141Z,48.17
2022-10-14T08:11:28.505Z,44.22
2022-10-14T08:13:55.785Z,45.80
2022-10-14T08:16:28.763Z,45.92
2022-10-14T08:18:57.876Z,47.90
2022-10-14T08:21:26.006Z,44.35
2022-10-14T08:23:54.870Z,43.95
2022-10-14T08:26:30.766Z,45.78
2022-10-14T08:28:59.592Z,46.25
2022-10-14T08:31:27.244Z,44.65
2022-10-14T08:33:54.356Z,41.13
2022-10-14T08:36:21.948Z,44.30
2022-10-14T08:38:51.524Z,41.13
2022-10-14T08:41:36.359Z,44.10
2022-10-14T08:44:25.325Z,41.05
2022-10-14T08:46:56.400Z,39.65
2022-10-14T08:49:35.538Z,42.95
2022-10-14T08:52:09.332Z,40.28
2022-10-14T08:54:40.569Z,40.38
2022-10-14T08:57:25.627Z,38.95
2022-10-14T08:59:53.743Z,41.90
2022-10-14T09:02:50.071Z,37.80
2022-10-14T09:05:21.876Z,38.35
2022-10-14T09:10:31.285Z,35.40
2022-10-14T09:13:30.917Z,40.22
2022-10-14T09:16:17.530Z,38.50
2022-10-14T09:18:50.872Z,40.70
2022-10-14T09:21:33.898Z,38.72
2022-10-14T09:24:18.716Z,39.13
2022-10-14T09:26:49.364Z,40.65
2022-10-14T09:29:27.177Z,38.95
2022-10-14T09:32:10.915Z,36.10
2022-10-14T09:34:41.816Z,37.08
2022-10-14T09:37:26.568Z,35.60
2022-10-14T09:39:57.254Z,35.78
2022-10-14T09:42:30.399Z,34.40
2022-10-14T09:47:55.317Z,36.75
2022-10-14T09:50:41.295Z,35.90
2022-10-14T09:53:16.777Z,34.55
2022-10-14T09:55:49.728Z,33.53
2022-10-14T09:58:22.578Z,34.63
2022-10-14T10:00:57.155Z,31.63
2022-10-14T10:03:33.013Z,32.92
2022-10-14T10:06:04.405Z,31.77
2022-10-14T10:08:32.997Z,31.83
2022-10-14T10:11:13.376Z,31.38
2022-10-14T10:13:44.909Z,29.27
2022-10-14T10:16:25.456Z,30.73
2022-10-14T10:18:55.351Z,28.13
2022-10-14T10:21:27.057Z,28.42
2022-10-14T10:23:57.993Z,28.23
2022-10-14T10:26:33.730Z,27.10
2022-10-14T10:29:03.961Z,27.83
2022-10-14T10:32:01.860Z,27.55
2022-10-14T10:34:32.217Z,25.88
2022-10-14T10:37:22.584Z,27.10
2022-10-14T10:40:20.352Z,24.85
2022-10-14T10:43:24.004Z,25.08
2022-10-14T10:46:18.147Z,25.65
2022-10-14T10:48:50.219Z,24.77
2022-10-14T10:51:31.019Z,26.70
2022-10-14T10:54:35.400Z,25.88
2022-10-14T10:57:24.966Z,25.63
2022-10-14T11:00:00.208Z,25.27
2022-10-14T11:02:48.791Z,25.33
2022-10-14T11:05:34.797Z,24.95
2022-10-14T11:08:28.150Z,25.35
2022-10-14T11:11:46.521Z,23.95
2022-10-14T11:14:33.077Z,24.50
2022-10-14T11:17:26.682Z,25.88
2022-10-14T11:20:13.026Z,25.85
2022-10-14T11:23:06.593Z,26.60
2022-10-14T11:25:44.481Z,26.33
2022-10-14T11:28:36.413Z,27.25
2022-10-14T11:31:34.038Z,25.60
2022-10-14T11:34:43.850Z,26.02
2022-10-14T11:37:39.182Z,26.45
2022-10-14T11:40:25.255Z,25.83
2022-10-14T11:43:24.438Z,25.48
2022-10-14T11:45:58.343Z,24.95
2022-10-14T11:48:51.203Z,25.05
2022-10-14T11:51:34.810Z,23.27
2022-10-14T11:54:12.617Z,25.30
2022-10-14T11:56:45.776Z,24.08
2022-10-14T11:59:37.162Z,24.70
2022-10-14T12:02:21.546Z,25.42
2022-10-14T12:05:10.998Z,25.33
2022-10-14T12:07:45.404Z,24.52
2022-10-14T12:10:19.739Z,24.48
2022-10-14T12:12:47.156Z,26.45
2022-10-14T12:15:20.113Z,25.73
2022-10-14T12:17:57.458Z,25.88
2022-10-14T12:20:36.823Z,27.38
2022-10-14T12:23:07.797Z,27.50
2022-10-14T12:25:45.847Z,27.80
2022-10-14T12:28:18.144Z,26.55
2022-10-14T12:30:47.027Z,25.17
2022-10-14T12:33:22.578Z,24.90
2022-10-14T12:35:53.311Z,24.73
2022-10-14T12:38:22.008Z,23.80
2022-10-14T12:40:51.160Z,22.67
2022-10-14T12:43:23.614Z,23.73
2022-10-14T12:46:04.200Z,22.70
2022-10-14T12:48:36.231Z,22.90
2022-10-14T12:51:16.023Z,20.10
2022-10-14T12:53:54.669Z,21.92
2022-10-14T12:56:30.524Z,19.20
2022-10-14T12:59:01.328Z,19.48
2022-10-14T13:01:32.321Z,19.42
2022-10-14T13:04:07.473Z,17.42
2022-10-14T13:06:44.300Z,17.65
2022-10-14T13:09:11.336Z,17.83
2022-10-14T13:11:39.574Z,15.95
2022-10-14T13:14:30.478Z,16.80
2022-10-14T13:17:00.260Z,17.42
2022-10-14T13:19:33.513Z,17.42
2022-10-14T13:22:02.393Z,17.63
2022-10-14T13:24:39.724Z,16.90
2022-10-14T13:27:33.176Z,17.17
2022-10-14T13:30:12.224Z,17.67
2022-10-14T13:32:46.096Z,17.08
2022-10-14T13:35:38.405Z,17.30
2022-10-14T13:38:12.692Z,18.42
2022-10-14T13:40:44.836Z,17.52
2022-10-14T13:43:20.835Z,18.27
2022-10-14T13:45:55.352Z,17.95
2022-10-14T13:48:32.130Z,18.23
2022-10-14T13:51:36.498Z,18.60
2022-10-14T13:54:20.237Z,16.95
2022-10-14T13:57:53.554Z,17.02
2022-10-14T14:00:59.065Z,16.38
2022-10-14T14:03:34.089Z,17.65
2022-10-14T14:06:08.869Z,17.98
2022-10-14T14:08:50.037Z,17.23
2022-10-14T14:11:20.943Z,16.77
2022-10-14T14:14:20.675Z,16.75
2022-10-14T14:17:01.339Z,16.27
2022-10-14T14:19:37.484Z,15.90
2022-10-14T14:22:16.916Z,15.25
2022-10-14T14:24:45.805Z,15.50
2022-10-14T14:27:19.029Z,16.52
2022-10-14T14:29:49.231Z,15.85
2022-10-14T14:32:20.233Z,14.55
2022-10-14T14:34:50.110Z,15.95
2022-10-14T14:37:54.634Z,15.43
2022-10-14T14:40:24.387Z,15.23
2022-10-14T14:43:00.560Z,14.40
2022-10-14T14:45:30.835Z,13.88
2022-10-14T14:48:02.685Z,13.75
2022-10-14T14:50:36.775Z,13.25
2022-10-14T14:56:00.556Z,13.57
2022-10-14T14:58:29.821Z,12.73
2022-10-14T15:00:57.512Z,13.90
2022-10-14T15:03:27.575Z,11.20
2022-10-14T15:06:05.370Z,13.27
2022-10-14T15:08:37.823Z,11.95
2022-10-14T15:11:05.312Z,12.52
2022-10-14T15:13:44.982Z,11.50
2022-10-14T15:16:12.373Z,12.55
2022-10-14T15:18:42.583Z,11.95
2022-10-14T15:21:12.639Z,11.90
2022-10-14T15:23:51.604Z,11.93
2022-10-14T15:26:35.001Z,11.68
2022-10-14T15:29:03.741Z,11.10
2022-10-14T15:31:30.897Z,11.43
2022-10-14T15:33:58.013Z,10.13
2022-10-14T15:36:27.075Z,10.95
2022-10-14T15:39:04.599Z,11.07
2022-10-14T15:41:31.645Z,9.80
2022-10-14T15:43:58.668Z,9.77
2022-10-14T15:46:44.422Z,10.63
2022-10-14T15:49:16.537Z,10.65
2022-10-14T15:51:43.574Z,10.23
2022-10-14T15:54:12.572Z,10.90
2022-10-14T15:56:39.599Z,10.40
2022-10-14T15:59:06.654Z,10.70
2022-10-14T16:01:38.299Z,10.20
2022-10-14T16:04:19.205Z,11.15
2022-10-14T16:06:47.878Z,10.15
2022-10-14T16:09:15.336Z,10.48
2022-10-14T16:11:57.239Z,10.75
2022-10-14T16:14:27.883Z,10.20
2022-10-14T16:16:55.481Z,10.30
2022-10-14T16:19:22.560Z,10.38
2022-10-14T16:21:50.316Z,11.55
2022-10-14T16:24:20.475Z,9.75
2022-10-14T16:26:51.326Z,9.77
2022-10-14T16:29:24.772Z,10.00
2022-10-14T16:31:52.388Z,10.55
2022-10-14T16:34:21.545Z,10.80
2022-10-14T16:36:49.798Z,11.00
2022-10-14T16:39:19.363Z,10.77
2022-10-14T16:41:46.918Z,11.27
2022-10-14T16:44:24.734Z,11.10
2022-10-14T16:47:15.641Z,11.45
2022-10-14T16:49:49.178Z,10.90
2022-10-14T16:52:16.754Z,10.48
2022-10-14T16:54:44.207Z,10.55
2022-10-14T16:57:12.117Z,11.05
2022-10-14T16:59:39.439Z,9.57
2022-10-14T17:02:10.590Z,10.20
2022-10-14T17:04:38.125Z,9.77
2022-10-14T17:07:07.476Z,11.05
2022-10-14T17:09:40.321Z,9.38
2022-10-14T17:12:12.971Z,10.75
2022-10-14T17:14:41.785Z,10.13
2022-10-14T17:17:10.334Z,10.07
2022-10-14T17:19:38.417Z,10.00
2022-10-14T17:22:05.587Z,10.00
2022-10-14T17:24:32.641Z,9.77
2022-10-14T17:27:02.598Z,9.73
2022-10-14T17:29:29.667Z,10.45
2022-10-14T17:31:57.230Z,10.38
2022-10-14T17:34:24.298Z,10.00
2022-10-14T17:36:53.275Z,10.68
2022-10-14T17:39:27.475Z,10.02
2022-10-14T17:41:57.632Z,10.52
2022-10-14T17:44:24.995Z,9.88
2022-10-14T17:46:53.326Z,10.57
2022-10-14T17:49:21.225Z,8.95
2022-10-14T17:51:48.682Z,9.57
2022-10-14T17:54:15.780Z,10.13
2022-10-14T17:56:43.217Z,10.60
2022-10-14T17:59:12.023Z,10.35
2022-10-14T18:04:26.372Z,10.43
2022-10-14T18:06:54.353Z,9.85
2022-10-14T18:09:21.541Z,10.20
2022-10-14T18:14:40.230Z,9.50
2022-10-14T18:17:07.695Z,10.25
2022-10-14T18:19:37.309Z,10.50
2022-10-14T18:22:06.595Z,11.40
2022-10-14T18:24:38.048Z,10.43
2022-10-14T18:27:05.455Z,10.20
2022-10-14T18:29:32.547Z,10.38
2022-10-14T18:31:59.693Z,10.18
2022-10-14T18:34:27.591Z,10.30
2022-10-14T18:36:54.841Z,10.07
2022-10-14T18:39:22.074Z,10.38
2022-10-14T18:41:49.133Z,9.98
2022-10-14T18:44:16.846Z,10.10
2022-10-14T18:46:43.960Z,10.50
2022-10-14T18:49:11.607Z,10.38
2022-10-14T18:51:40.931Z,10.70
2022-10-14T18:54:12.348Z,11.25
2022-10-14T18:56:39.902Z,11.13
2022-10-14T18:59:11.793Z,10.35
2022-10-14T19:01:40.137Z,11.30
2022-10-14T19:04:09.613Z,10.95
2022-10-14T19:06:36.877Z,10.25
2022-10-14T19:09:04.279Z,9.77
2022-10-14T19:11:33.522Z,10.80
2022-10-14T19:14:05.292Z,9.65
2022-10-14T19:16:36.055Z,10.27
2022-10-14T19:19:08.414Z,9.77
2022-10-14T19:21:38.952Z,8.98
2022-10-14T19:24:08.096Z,9.05
2022-10-14T19:26:38.366Z,7.97
2022-10-14T19:29:10.510Z,8.02
2022-10-14T19:31:39.707Z,8.20
2022-10-14T19:34:10.104Z,8.20
2022-10-14T19:36:44.812Z,7.47
2022-10-14T19:39:14.513Z,7.07
2022-10-14T19:41:46.281Z,7.57
2022-10-14T19:44:15.097Z,7.65
2022-10-14T19:46:48.207Z,7.70
2022-10-14T19:49:15.775Z,7.53
2022-10-14T19:51:43.502Z,6.85
2022-10-14T19:54:12.366Z,5.95
2022-10-14T19:56:39.629Z,6.05
2022-10-14T19:59:06.750Z,8.15
2022-10-14T20:01:33.940Z,7.60
2022-10-14T20:04:02.749Z,6.65
2022-10-14T20:06:33.766Z,7.22
2022-10-14T20:09:01.435Z,6.68
2022-10-14T20:11:28.998Z,6.82
2022-10-14T20:13:56.486Z,6.47
2022-10-14T20:16:23.608Z,6.90
2022-10-14T20:18:50.679Z,6.60
2022-10-14T20:21:17.918Z,6.72
2022-10-14T20:23:45.256Z,6.85
2022-10-14T20:26:16.084Z,6.75
2022-10-14T20:28:43.628Z,6.50
2022-10-14T20:31:14.208Z,6.05
2022-10-14T20:33:41.838Z,7.05
2022-10-14T20:36:15.750Z,7.65
2022-10-14T20:41:14.856Z,7.40
2022-10-14T20:46:12.407Z,6.32
2022-10-14T20:48:41.732Z,7.60
2022-10-14T20:51:17.848Z,6.55
2022-10-14T20:53:44.930Z,6.55
2022-10-14T20:56:13.273Z,6.15
2022-10-14T20:58:41.220Z,6.30
2022-10-14T21:01:09.430Z,7.00
2022-10-14T21:03:36.605Z,6.18
2022-10-14T21:06:06.081Z,6.13
2022-10-14T21:08:34.609Z,6.40
2022-10-14T21:11:07.042Z,6.55
2022-10-14T21:13:36.404Z,6.40
2022-10-14T21:16:31.980Z,6.60
2022-10-14T21:19:02.816Z,6.88
2022-10-14T21:21:37.760Z,6.57
2022-10-14T21:24:05.381Z,6.00
2022-10-14T21:26:35.240Z,6.45
2022-10-14T21:29:03.054Z,6.72
2022-10-14T21:31:30.855Z,6.68
2022-10-14T21:34:05.041Z,5.88
2022-10-14T21:36:34.327Z,6.13
2022-10-14T21:39:06.231Z,6.28
2022-10-14T21:41:34.639Z,6.85
2022-10-14T21:44:01.948Z,7.85
2022-10-14T21:46:29.009Z,6.47
2022-10-14T21:48:57.265Z,6.30
2022-10-14T21:51:26.614Z,7.57
2022-10-14T21:53:53.817Z,6.30
2022-10-14T21:56:23.973Z,7.25
2022-10-14T21:58:51.605Z,6.93
2022-10-14T22:01:28.483Z,6.75
2022-10-14T22:04:04.404Z,6.88
2022-10-14T22:06:33.704Z,7.20
2022-10-14T22:09:02.978Z,6.35
2022-10-14T22:11:31.171Z,7.07
2022-10-14T22:13:59.989Z,6.60
2022-10-14T22:16:29.182Z,7.57
2022-10-14T22:18:59.275Z,6.88
2022-10-14T22:21:30.380Z,7.35
2022-10-14T22:24:01.453Z,7.10
2022-10-14T22:26:29.634Z,7.35
2022-10-14T22:29:16.321Z,8.60
2022-10-14T22:31:44.135Z,7.30
2022-10-14T22:34:16.306Z,8.52
2022-10-14T22:36:44.291Z,7.90
2022-10-14T22:39:15.209Z,7.78
2022-10-14T22:41:42.446Z,8.23
2022-10-14T22:44:14.409Z,7.88
2022-10-14T22:46:41.724Z,8.95
2022-10-14T22:49:11.590Z,9.23
2022-10-14T22:51:40.638Z,9.07
2022-10-14T22:54:08.701Z,8.80
2022-10-14T22:56:36.301Z,9.02
2022-10-14T22:59:09.568Z,9.85
2022-10-14T23:01:37.744Z,9.48
2022-10-14T23:04:05.135Z,10.50
2022-10-14T23:06:32.436Z,10.68
2022-10-14T23:09:02.794Z,10.63
2022-10-14T23:11:31.470Z,10.80
2022-10-14T23:14:01.442Z,9.13
2022-10-14T23:16:31.785Z,10.07
2022-10-14T23:18:59.212Z,9.85
2022-10-14T23:21:37.499Z,9.50
2022-10-14T23:24:07.803Z,11.10
2022-10-14T23:26:36.059Z,10.43
2022-10-14T23:29:07.430Z,10.63
2022-10-14T23:31:36.667Z,10.60
2022-10-14T23:34:07.719Z,10.80
2022-10-14T23:36:34.810Z,10.25
2022-10-14T23:39:01.990Z,11.45
2022-10-14T23:41:29.053Z,12.00
2022-10-14T23:43:56.819Z,11.30
2022-10-14T23:46:24.602Z,11.40
2022-10-14T23:49:07.025Z,11.95
2022-10-14T23:51:39.820Z,13.27
2022-10-14T23:54:06.882Z,12.10
2022-10-14T23:56:33.936Z,12.82
2022-10-14T23:59:00.965Z,12.98
